KFTG

Front Range Airport

Denver, Colorado, USA
METAR KFTG 162347Z 06009KT 10SM SCT150 BKN220 02/M08 A2984
Observed Flight Rules
Dec-16 @ 23:47 UTC (26 minutes ago) Visual Flight Rules
Wind Visibility Clouds
60° at 9 knots 10 miles
  • Scattered at 15,000' AGL
  • Broken at 22,000' AGL
Temperatures Readings
Current 2°C / 36°F
Dewpoint -8°C / 18°F
Humidity 48%
Altimeter 29.84" Hg
Pressure 1010 hPa
Elevation 1675
METAR KFTG 162347Z 06009KT 10SM SCT150 BKN220 02/M08 A2984
Observed Flight Rules
Dec-16 @ 23:47 UTC
(26 minutes ago)
VFR
Wind Visibility
60° at 9 knots 10 miles
Clouds
  • Scattered at 15,000' AGL
  • Broken at 22,000' AGL
Temperature Dewpoint
2°C / 36°F -8°C / 18°F
Humidity Altimeter Pressure
48% 29.84" Hg 1010 hPa